sensor_id;sensor_type;location;lat;lon;timestamp;pressure;altitude;pressure_sealevel;temperature;humidity
84593;BME280;74832;51.656;5.298;2024-02-23T00:00:13;98846.62;;;16.36;64.84
84593;BME280;74832;51.656;5.298;2024-02-23T00:00:43;98852.51;;;16.34;64.91
84593;BME280;74832;51.656;5.298;2024-02-23T00:01:13;98844.57;;;16.31;64.94
84593;BME280;74832;51.656;5.298;2024-02-23T00:01:44;98849.51;;;16.41;64.70
84593;BME280;74832;51.656;5.298;2024-02-23T00:02:14;98853.70;;;16.42;64.58
84593;BME280;74832;51.656;5.298;2024-02-23T00:02:45;98858.52;;;16.37;64.75
84593;BME280;74832;51.656;5.298;2024-02-23T00:03:15;98847.97;;;16.38;64.72
84593;BME280;74832;51.656;5.298;2024-02-23T00:03:45;98858.77;;;16.32;64.78
84593;BME280;74832;51.656;5.298;2024-02-23T00:04:16;98852.13;;;16.31;64.95
84593;BME280;74832;51.656;5.298;2024-02-23T00:04:46;98849.58;;;16.35;64.83
84593;BME280;74832;51.656;5.298;2024-02-23T00:05:16;98855.88;;;16.34;64.88
84593;BME280;74832;51.656;5.298;2024-02-23T00:05:47;98848.72;;;16.36;64.76
84593;BME280;74832;51.656;5.298;2024-02-23T00:06:17;98855.52;;;16.30;64.99
84593;BME280;74832;51.656;5.298;2024-02-23T00:06:48;98852.47;;;16.34;64.86
84593;BME280;74832;51.656;5.298;2024-02-23T00:07:18;98850.80;;;16.30;65.00
84593;BME280;74832;51.656;5.298;2024-02-23T00:07:48;98855.84;;;16.24;65.15
84593;BME280;74832;51.656;5.298;2024-02-23T00:08:19;98860.04;;;16.30;65.03
84593;BME280;74832;51.656;5.298;2024-02-23T00:08:49;98852.08;;;16.28;65.09
84593;BME280;74832;51.656;5.298;2024-02-23T00:09:20;98858.55;;;16.25;65.21
84593;BME280;74832;51.656;5.298;2024-02-23T00:09:50;98853.82;;;16.31;65.03
84593;BME280;74832;51.656;5.298;2024-02-23T00:10:20;98856.54;;;16.31;65.03
84593;BME280;74832;51.656;5.298;2024-02-23T00:10:51;98855.37;;;16.36;64.91
84593;BME280;74832;51.656;5.298;2024-02-23T00:11:21;98861.20;;;16.33;64.96
84593;BME280;74832;51.656;5.298;2024-02-23T00:11:51;98861.94;;;16.24;65.25
84593;BME280;74832;51.656;5.298;2024-02-23T00:12:22;98858.85;;;16.21;65.43
84593;BME280;74832;51.656;5.298;2024-02-23T00:12:52;98859.76;;;16.30;65.11
84593;BME280;74832;51.656;5.298;2024-02-23T00:13:23;98869.07;;;16.36;65.04
84593;BME280;74832;51.656;5.298;2024-02-23T00:13:53;98859.37;;;16.32;65.04
84593;BME280;74832;51.656;5.298;2024-02-23T00:14:23;98864.43;;;16.33;65.12
84593;BME280;74832;51.656;5.298;2024-02-23T00:14:54;98865.81;;;16.31;65.00
84593;BME280;74832;51.656;5.298;2024-02-23T00:15:24;98867.41;;;16.33;65.02
84593;BME280;74832;51.656;5.298;2024-02-23T00:15:54;98861.36;;;16.33;64.95
84593;BME280;74832;51.656;5.298;2024-02-23T00:16:25;98858.00;;;16.33;65.04
84593;BME280;74832;51.656;5.298;2024-02-23T00:16:55;98870.97;;;16.33;65.09
84593;BME280;74832;51.656;5.298;2024-02-23T00:17:26;98868.65;;;16.30;65.13
84593;BME280;74832;51.656;5.298;2024-02-23T00:17:56;98862.17;;;16.29;65.08
84593;BME280;74832;51.656;5.298;2024-02-23T00:18:27;98864.13;;;16.21;65.34
84593;BME280;74832;51.656;5.298;2024-02-23T00:18:57;98871.01;;;16.23;65.33
84593;BME280;74832;51.656;5.298;2024-02-23T00:19:27;98868.18;;;16.29;65.25
84593;BME280;74832;51.656;5.298;2024-02-23T00:19:58;98867.98;;;16.30;65.08
84593;BME280;74832;51.656;5.298;2024-02-23T00:20:28;98867.20;;;16.23;65.27
84593;BME280;74832;51.656;5.298;2024-02-23T00:20:59;98867.34;;;16.28;65.23
84593;BME280;74832;51.656;5.298;2024-02-23T00:21:29;98868.97;;;16.27;65.21
84593;BME280;74832;51.656;5.298;2024-02-23T00:21:59;98868.00;;;16.27;65.27
84593;BME280;74832;51.656;5.298;2024-02-23T00:22:30;98869.49;;;16.25;65.33
84593;BME280;74832;51.656;5.298;2024-02-23T00:23:01;98868.71;;;16.20;65.50
84593;BME280;74832;51.656;5.298;2024-02-23T00:23:31;98881.22;;;16.23;65.39
84593;BME280;74832;51.656;5.298;2024-02-23T00:24:02;98876.54;;;16.21;65.42
84593;BME280;74832;51.656;5.298;2024-02-23T00:24:32;98872.76;;;16.26;65.38
84593;BME280;74832;51.656;5.298;2024-02-23T00:25:03;98883.63;;;16.32;65.20
84593;BME280;74832;51.656;5.298;2024-02-23T00:25:34;98879.02;;;16.33;65.12
84593;BME280;74832;51.656;5.298;2024-02-23T00:26:04;98877.93;;;16.35;65.05
84593;BME280;74832;51.656;5.298;2024-02-23T00:26:34;98876.95;;;16.32;65.10
84593;BME280;74832;51.656;5.298;2024-02-23T00:27:05;98877.40;;;16.22;65.36
84593;BME280;74832;51.656;5.298;2024-02-23T00:27:35;98877.81;;;16.22;65.43
84593;BME280;74832;51.656;5.298;2024-02-23T00:28:06;98881.74;;;16.22;65.39
84593;BME280;74832;51.656;5.298;2024-02-23T00:28:37;98881.61;;;16.19;65.50
84593;BME280;74832;51.656;5.298;2024-02-23T00:29:07;98880.46;;;16.16;65.55
84593;BME280;74832;51.656;5.298;2024-02-23T00:29:37;98878.34;;;16.15;65.61
84593;BME280;74832;51.656;5.298;2024-02-23T00:30:08;98881.74;;;16.14;65.62
84593;BME280;74832;51.656;5.298;2024-02-23T00:30:39;98881.62;;;16.12;65.68
84593;BME280;74832;51.656;5.298;2024-02-23T00:31:09;98881.92;;;16.17;65.62
84593;BME280;74832;51.656;5.298;2024-02-23T00:31:40;98885.52;;;16.21;65.55
84593;BME280;74832;51.656;5.298;2024-02-23T00:32:10;98888.31;;;16.25;65.39
84593;BME280;74832;51.656;5.298;2024-02-23T00:32:41;98888.24;;;16.22;65.51
84593;BME280;74832;51.656;5.298;2024-02-23T00:33:11;98888.17;;;16.24;65.37
84593;BME280;74832;51.656;5.298;2024-02-23T00:33:41;98893.52;;;16.24;65.48
84593;BME280;74832;51.656;5.298;2024-02-23T00:34:12;98892.13;;;16.23;65.45
84593;BME280;74832;51.656;5.298;2024-02-23T00:34:42;98886.05;;;16.19;65.58
84593;BME280;74832;51.656;5.298;2024-02-23T00:35:12;98890.64;;;16.22;65.39
84593;BME280;74832;51.656;5.298;2024-02-23T00:35:43;98894.58;;;16.31;65.28
84593;BME280;74832;51.656;5.298;2024-02-23T00:36:14;98887.61;;;16.27;65.29
84593;BME280;74832;51.656;5.298;2024-02-23T00:36:44;98890.71;;;16.25;65.46
84593;BME280;74832;51.656;5.298;2024-02-23T00:37:14;98893.00;;;16.26;65.34
84593;BME280;74832;51.656;5.298;2024-02-23T00:37:45;98893.01;;;16.29;65.37
84593;BME280;74832;51.656;5.298;2024-02-23T00:38:15;98895.28;;;16.21;65.48
84593;BME280;74832;51.656;5.298;2024-02-23T00:38:46;98889.83;;;16.22;65.54
84593;BME280;74832;51.656;5.298;2024-02-23T00:39:16;98890.31;;;16.18;65.64
84593;BME280;74832;51.656;5.298;2024-02-23T00:39:46;98893.63;;;16.19;65.75
84593;BME280;74832;51.656;5.298;2024-02-23T00:40:17;98894.06;;;16.16;65.68
84593;BME280;74832;51.656;5.298;2024-02-23T00:40:47;98896.16;;;16.16;65.76
84593;BME280;74832;51.656;5.298;2024-02-23T00:41:17;98893.85;;;16.22;65.58
84593;BME280;74832;51.656;5.298;2024-02-23T00:41:48;98896.11;;;16.14;65.75
84593;BME280;74832;51.656;5.298;2024-02-23T00:42:18;98896.52;;;16.07;66.03
84593;BME280;74832;51.656;5.298;2024-02-23T00:42:49;98902.22;;;16.12;65.88
84593;BME280;74832;51.656;5.298;2024-02-23T00:43:19;98898.97;;;16.20;65.70
84593;BME280;74832;51.656;5.298;2024-02-23T00:43:50;98904.03;;;16.17;65.71
84593;BME280;74832;51.656;5.298;2024-02-23T00:44:20;98906.28;;;16.24;65.56
84593;BME280;74832;51.656;5.298;2024-02-23T00:44:50;98897.77;;;16.26;65.53
84593;BME280;74832;51.656;5.298;2024-02-23T00:45:21;98904.90;;;16.18;65.62
84593;BME280;74832;51.656;5.298;2024-02-23T00:45:51;98899.35;;;16.17;65.88
84593;BME280;74832;51.656;5.298;2024-02-23T00:46:22;98903.23;;;16.29;65.50
84593;BME280;74832;51.656;5.298;2024-02-23T00:46:52;98902.87;;;16.26;65.45
84593;BME280;74832;51.656;5.298;2024-02-23T00:47:22;98898.87;;;16.21;65.52
84593;BME280;74832;51.656;5.298;2024-02-23T00:47:53;98903.34;;;16.15;65.65
84593;BME280;74832;51.656;5.298;2024-02-23T00:48:23;98901.68;;;16.10;65.92
84593;BME280;74832;51.656;5.298;2024-02-23T00:48:54;98908.32;;;16.15;65.77
84593;BME280;74832;51.656;5.298;2024-02-23T00:49:24;98908.48;;;16.18;65.69
84593;BME280;74832;51.656;5.298;2024-02-23T00:49:54;98906.98;;;16.17;65.67
84593;BME280;74832;51.656;5.298;2024-02-23T00:50:25;98903.74;;;16.19;65.67
84593;BME280;74832;51.656;5.298;2024-02-23T00:50:56;98907.24;;;16.12;65.79
84593;BME280;74832;51.656;5.298;2024-02-23T00:51:26;98906.96;;;16.10;65.91
84593;BME280;74832;51.656;5.298;2024-02-23T00:51:56;98911.52;;;16.19;65.76
84593;BME280;74832;51.656;5.298;2024-02-23T00:52:27;98917.38;;;16.12;65.80
84593;BME280;74832;51.656;5.298;2024-02-23T00:52:57;98913.14;;;16.08;65.95
84593;BME280;74832;51.656;5.298;2024-02-23T00:53:27;98912.68;;;16.14;65.90
84593;BME280;74832;51.656;5.298;2024-02-23T00:53:58;98913.29;;;16.09;65.98
84593;BME280;74832;51.656;5.298;2024-02-23T00:54:28;98911.81;;;16.15;65.88
84593;BME280;74832;51.656;5.298;2024-02-23T00:54:59;98907.90;;;16.14;65.82
84593;BME280;74832;51.656;5.298;2024-02-23T00:55:29;98907.35;;;16.14;65.81
84593;BME280;74832;51.656;5.298;2024-02-23T00:56:00;98913.00;;;16.15;65.82
84593;BME280;74832;51.656;5.298;2024-02-23T00:56:30;98910.42;;;16.18;65.74
84593;BME280;74832;51.656;5.298;2024-02-23T00:57:00;98909.09;;;16.16;65.77
84593;BME280;74832;51.656;5.298;2024-02-23T00:57:31;98912.92;;;16.14;65.84
84593;BME280;74832;51.656;5.298;2024-02-23T00:58:01;98907.73;;;16.15;65.74
84593;BME280;74832;51.656;5.298;2024-02-23T00:58:31;98909.48;;;16.20;65.71
84593;BME280;74832;51.656;5.298;2024-02-23T00:59:02;98913.47;;;16.15;65.74
84593;BME280;74832;51.656;5.298;2024-02-23T00:59:32;98907.21;;;16.08;65.97
84593;BME280;74832;51.656;5.298;2024-02-23T01:00:04;98916.33;;;16.21;65.67
84593;BME280;74832;51.656;5.298;2024-02-23T01:00:34;98913.58;;;16.17;65.70
84593;BME280;74832;51.656;5.298;2024-02-23T01:01:05;98907.62;;;16.15;65.72
84593;BME280;74832;51.656;5.298;2024-02-23T01:01:35;98915.52;;;16.25;65.53
84593;BME280;74832;51.656;5.298;2024-02-23T01:02:06;98912.95;;;16.23;65.55
84593;BME280;74832;51.656;5.298;2024-02-23T01:02:36;98913.41;;;16.21;65.59
84593;BME280;74832;51.656;5.298;2024-02-23T01:03:07;98911.66;;;16.18;65.61
84593;BME280;74832;51.656;5.298;2024-02-23T01:03:37;98912.76;;;16.10;65.89
84593;BME280;74832;51.656;5.298;2024-02-23T01:04:08;98915.92;;;16.10;65.89
84593;BME280;74832;51.656;5.298;2024-02-23T01:04:38;98918.80;;;16.13;65.74
84593;BME280;74832;51.656;5.298;2024-02-23T01:05:08;98910.33;;;16.18;65.71
84593;BME280;74832;51.656;5.298;2024-02-23T01:05:39;98913.30;;;16.22;65.51
84593;BME280;74832;51.656;5.298;2024-02-23T01:06:09;98918.10;;;16.26;65.39
84593;BME280;74832;51.656;5.298;2024-02-23T01:06:39;98917.45;;;16.20;65.46
84593;BME280;74832;51.656;5.298;2024-02-23T01:07:10;98914.38;;;16.10;65.71
84593;BME280;74832;51.656;5.298;2024-02-23T01:07:40;98923.17;;;16.15;65.71
84593;BME280;74832;51.656;5.298;2024-02-23T01:08:11;98913.75;;;16.14;65.77
84593;BME280;74832;51.656;5.298;2024-02-23T01:08:41;98918.80;;;16.12;65.73
84593;BME280;74832;51.656;5.298;2024-02-23T01:09:11;98920.47;;;16.15;65.55
84593;BME280;74832;51.656;5.298;2024-02-23T01:09:42;98923.92;;;16.08;65.86
84593;BME280;74832;51.656;5.298;2024-02-23T01:10:12;98923.49;;;16.10;65.80
84593;BME280;74832;51.656;5.298;2024-02-23T01:10:42;98920.53;;;16.00;66.03
84593;BME280;74832;51.656;5.298;2024-02-23T01:11:13;98917.33;;;16.10;65.76
84593;BME280;74832;51.656;5.298;2024-02-23T01:11:43;98915.61;;;16.06;65.90
84593;BME280;74832;51.656;5.298;2024-02-23T01:12:14;98923.91;;;16.10;65.79
84593;BME280;74832;51.656;5.298;2024-02-23T01:12:44;98921.50;;;16.07;65.85
84593;BME280;74832;51.656;5.298;2024-02-23T01:13:14;98921.29;;;16.12;65.74
84593;BME280;74832;51.656;5.298;2024-02-23T01:13:45;98919.98;;;16.11;65.74
84593;BME280;74832;51.656;5.298;2024-02-23T01:14:15;98927.19;;;16.12;65.72
84593;BME280;74832;51.656;5.298;2024-02-23T01:14:46;98927.51;;;15.96;66.09
84593;BME280;74832;51.656;5.298;2024-02-23T01:15:16;98920.71;;;16.05;65.95
84593;BME280;74832;51.656;5.298;2024-02-23T01:15:47;98917.44;;;16.07;65.78
84593;BME280;74832;51.656;5.298;2024-02-23T01:16:17;98920.90;;;16.07;65.89
84593;BME280;74832;51.656;5.298;2024-02-23T01:16:47;98923.21;;;16.06;65.82
84593;BME280;74832;51.656;5.298;2024-02-23T01:17:18;98928.90;;;16.12;65.68
84593;BME280;74832;51.656;5.298;2024-02-23T01:17:48;98925.64;;;16.04;65.83
84593;BME280;74832;51.656;5.298;2024-02-23T01:18:18;98929.82;;;16.06;65.78
84593;BME280;74832;51.656;5.298;2024-02-23T01:18:49;98923.17;;;15.96;66.05
84593;BME280;74832;51.656;5.298;2024-02-23T01:19:19;98928.02;;;16.03;65.90
84593;BME280;74832;51.656;5.298;2024-02-23T01:19:49;98926.03;;;16.08;65.80
84593;BME280;74832;51.656;5.298;2024-02-23T01:20:20;98926.84;;;15.97;65.96
84593;BME280;74832;51.656;5.298;2024-02-23T01:20:50;98921.19;;;15.95;65.98
84593;BME280;74832;51.656;5.298;2024-02-23T01:21:20;98929.40;;;15.94;66.19
84593;BME280;74832;51.656;5.298;2024-02-23T01:21:51;98925.38;;;15.95;66.08
84593;BME280;74832;51.656;5.298;2024-02-23T01:22:21;98925.25;;;15.99;65.88
84593;BME280;74832;51.656;5.298;2024-02-23T01:22:52;98932.52;;;16.03;65.90
84593;BME280;74832;51.656;5.298;2024-02-23T01:23:22;98933.95;;;16.06;65.88
84593;BME280;74832;51.656;5.298;2024-02-23T01:23:52;98927.42;;;16.07;65.84
84593;BME280;74832;51.656;5.298;2024-02-23T01:24:23;98929.27;;;16.00;65.95
84593;BME280;74832;51.656;5.298;2024-02-23T01:24:53;98932.24;;;15.97;65.88
84593;BME280;74832;51.656;5.298;2024-02-23T01:25:24;98932.50;;;15.91;66.02
84593;BME280;74832;51.656;5.298;2024-02-23T01:25:54;98931.84;;;15.97;65.99
84593;BME280;74832;51.656;5.298;2024-02-23T01:26:24;98928.64;;;15.98;65.91
84593;BME280;74832;51.656;5.298;2024-02-23T01:26:55;98932.10;;;15.98;66.04
84593;BME280;74832;51.656;5.298;2024-02-23T01:27:25;98936.87;;;15.98;66.03
84593;BME280;74832;51.656;5.298;2024-02-23T01:27:56;98931.49;;;16.02;65.86
84593;BME280;74832;51.656;5.298;2024-02-23T01:28:26;98927.95;;;15.97;66.03
84593;BME280;74832;51.656;5.298;2024-02-23T01:28:57;98927.95;;;15.98;66.01
84593;BME280;74832;51.656;5.298;2024-02-23T01:29:27;98937.14;;;15.99;65.91
84593;BME280;74832;51.656;5.298;2024-02-23T01:29:57;98936.90;;;16.03;65.85
84593;BME280;74832;51.656;5.298;2024-02-23T01:30:28;98930.07;;;16.05;65.59
84593;BME280;74832;51.656;5.298;2024-02-23T01:30:58;98933.29;;;16.03;65.76
84593;BME280;74832;51.656;5.298;2024-02-23T01:31:28;98933.19;;;16.02;65.80
84593;BME280;74832;51.656;5.298;2024-02-23T01:31:59;98931.92;;;16.05;65.62
84593;BME280;74832;51.656;5.298;2024-02-23T01:32:30;98935.23;;;16.03;65.86
84593;BME280;74832;51.656;5.298;2024-02-23T01:33:00;98937.41;;;16.09;65.60
84593;BME280;74832;51.656;5.298;2024-02-23T01:33:30;98935.43;;;15.95;66.02
84593;BME280;74832;51.656;5.298;2024-02-23T01:34:01;98934.08;;;15.96;65.95
84593;BME280;74832;51.656;5.298;2024-02-23T01:34:31;98934.10;;;16.00;65.79
84593;BME280;74832;51.656;5.298;2024-02-23T01:35:01;98939.29;;;16.00;65.89
84593;BME280;74832;51.656;5.298;2024-02-23T01:35:32;98934.84;;;15.98;65.89
84593;BME280;74832;51.656;5.298;2024-02-23T01:36:03;98933.18;;;15.97;65.95
84593;BME280;74832;51.656;5.298;2024-02-23T01:36:33;98937.29;;;16.04;65.77
84593;BME280;74832;51.656;5.298;2024-02-23T01:37:03;98937.64;;;15.99;65.92
84593;BME280;74832;51.656;5.298;2024-02-23T01:37:34;98942.56;;;15.96;65.94
84593;BME280;74832;51.656;5.298;2024-02-23T01:38:04;98939.66;;;15.94;66.04
84593;BME280;74832;51.656;5.298;2024-02-23T01:38:35;98938.45;;;15.98;65.87
84593;BME280;74832;51.656;5.298;2024-02-23T01:39:05;98948.06;;;15.95;65.98
84593;BME280;74832;51.656;5.298;2024-02-23T01:39:35;98941.16;;;15.94;66.03
84593;BME280;74832;51.656;5.298;2024-02-23T01:40:06;98943.89;;;15.98;65.91
84593;BME280;74832;51.656;5.298;2024-02-23T01:40:37;98946.68;;;15.96;65.97
84593;BME280;74832;51.656;5.298;2024-02-23T01:41:07;98939.22;;;15.99;65.77
84593;BME280;74832;51.656;5.298;2024-02-23T01:41:38;98944.82;;;16.03;65.82
84593;BME280;74832;51.656;5.298;2024-02-23T01:42:09;98942.80;;;15.93;65.89
84593;BME280;74832;51.656;5.298;2024-02-23T01:42:39;98945.76;;;15.92;66.13
84593;BME280;74832;51.656;5.298;2024-02-23T01:43:09;98941.00;;;15.94;66.03
84593;BME280;74832;51.656;5.298;2024-02-23T01:43:40;98941.99;;;15.97;65.96
84593;BME280;74832;51.656;5.298;2024-02-23T01:44:10;98942.92;;;16.00;65.80
84593;BME280;74832;51.656;5.298;2024-02-23T01:44:40;98945.22;;;15.91;66.06
84593;BME280;74832;51.656;5.298;2024-02-23T01:45:11;98950.57;;;15.77;66.44
84593;BME280;74832;51.656;5.298;2024-02-23T01:45:41;98950.37;;;15.90;66.10
84593;BME280;74832;51.656;5.298;2024-02-23T01:46:12;98952.24;;;15.90;66.14
84593;BME280;74832;51.656;5.298;2024-02-23T01:46:42;98951.26;;;15.95;65.94
84593;BME280;74832;51.656;5.298;2024-02-23T01:47:13;98949.05;;;15.94;66.00
84593;BME280;74832;51.656;5.298;2024-02-23T01:47:43;98950.64;;;15.91;66.06
84593;BME280;74832;51.656;5.298;2024-02-23T01:48:14;98953.47;;;15.96;65.90
84593;BME280;74832;51.656;5.298;2024-02-23T01:48:45;98955.58;;;15.88;66.11
84593;BME280;74832;51.656;5.298;2024-02-23T01:49:16;98958.26;;;15.90;65.93
84593;BME280;74832;51.656;5.298;2024-02-23T01:49:47;98957.06;;;15.89;66.03
84593;BME280;74832;51.656;5.298;2024-02-23T01:50:17;98951.76;;;15.87;66.11
84593;BME280;74832;51.656;5.298;2024-02-23T01:50:48;98957.04;;;15.82;66.36
84593;BME280;74832;51.656;5.298;2024-02-23T01:51:19;98958.19;;;15.91;66.07
84593;BME280;74832;51.656;5.298;2024-02-23T01:51:50;98956.94;;;15.90;66.11
84593;BME280;74832;51.656;5.298;2024-02-23T01:52:20;98960.25;;;15.94;65.95
84593;BME280;74832;51.656;5.298;2024-02-23T01:52:51;98967.43;;;15.96;65.90
84593;BME280;74832;51.656;5.298;2024-02-23T01:53:22;98958.39;;;15.94;65.90
84593;BME280;74832;51.656;5.298;2024-02-23T01:53:53;98961.79;;;15.96;65.85
84593;BME280;74832;51.656;5.298;2024-02-23T01:54:24;98967.14;;;15.89;66.06
84593;BME280;74832;51.656;5.298;2024-02-23T01:54:55;98964.85;;;15.90;66.07
84593;BME280;74832;51.656;5.298;2024-02-23T01:55:26;98970.58;;;15.87;66.14
84593;BME280;74832;51.656;5.298;2024-02-23T01:55:57;98962.70;;;15.89;66.06
84593;BME280;74832;51.656;5.298;2024-02-23T01:56:29;98967.50;;;15.92;65.90
84593;BME280;74832;51.656;5.298;2024-02-23T01:57:00;98968.42;;;15.99;65.77
84593;BME280;74832;51.656;5.298;2024-02-23T01:57:30;98968.28;;;16.00;65.69
84593;BME280;74832;51.656;5.298;2024-02-23T01:58:01;98969.43;;;15.94;65.84
84593;BME280;74832;51.656;5.298;2024-02-23T01:58:33;98970.97;;;15.91;66.00
84593;BME280;74832;51.656;5.298;2024-02-23T01:59:06;98960.14;;;15.93;65.87
84593;BME280;74832;51.656;5.298;2024-02-23T01:59:37;98967.91;;;15.88;66.13
84593;BME280;74832;51.656;5.298;2024-02-23T02:00:11;98959.25;;;15.95;65.84
84593;BME280;74832;51.656;5.298;2024-02-23T02:00:45;98965.31;;;15.97;65.88
84593;BME280;74832;51.656;5.298;2024-02-23T02:01:15;98959.05;;;15.91;65.96
84593;BME280;74832;51.656;5.298;2024-02-23T02:01:45;98955.88;;;15.91;65.95
84593;BME280;74832;51.656;5.298;2024-02-23T02:02:16;98955.76;;;15.84;66.04
84593;BME280;74832;51.656;5.298;2024-02-23T02:02:47;98962.00;;;15.87;66.06
84593;BME280;74832;51.656;5.298;2024-02-23T02:03:18;98959.97;;;15.87;66.09
84593;BME280;74832;51.656;5.298;2024-02-23T02:03:48;98962.22;;;15.90;65.95
84593;BME280;74832;51.656;5.298;2024-02-23T02:04:19;98956.84;;;15.91;66.04
84593;BME280;74832;51.656;5.298;2024-02-23T02:04:49;98958.34;;;15.91;66.02
84593;BME280;74832;51.656;5.298;2024-02-23T02:05:19;98959.64;;;15.91;65.98
84593;BME280;74832;51.656;5.298;2024-02-23T02:05:50;98957.49;;;15.87;66.12
84593;BME280;74832;51.656;5.298;2024-02-23T02:06:21;98958.54;;;15.85;66.02
84593;BME280;74832;51.656;5.298;2024-02-23T02:06:51;98959.69;;;15.88;66.05
84593;BME280;74832;51.656;5.298;2024-02-23T02:07:22;98957.50;;;15.91;65.97
84593;BME280;74832;51.656;5.298;2024-02-23T02:07:53;98955.41;;;15.88;66.02
84593;BME280;74832;51.656;5.298;2024-02-23T02:08:24;98951.97;;;15.93;65.88
84593;BME280;74832;51.656;5.298;2024-02-23T02:08:55;98950.42;;;15.91;65.94
84593;BME280;74832;51.656;5.298;2024-02-23T02:09:25;98956.69;;;15.86;66.03
84593;BME280;74832;51.656;5.298;2024-02-23T02:09:56;98952.95;;;15.84;66.28
84593;BME280;74832;51.656;5.298;2024-02-23T02:10:26;98958.90;;;15.85;66.22
84593;BME280;74832;51.656;5.298;2024-02-23T02:10:57;98955.35;;;15.81;66.25
84593;BME280;74832;51.656;5.298;2024-02-23T02:11:27;98958.47;;;15.84;66.19
84593;BME280;74832;51.656;5.298;2024-02-23T02:11:57;98960.10;;;15.81;66.20
84593;BME280;74832;51.656;5.298;2024-02-23T02:12:28;98959.32;;;15.81;66.24
84593;BME280;74832;51.656;5.298;2024-02-23T02:13:02;98964.05;;;15.82;66.29
84593;BME280;74832;51.656;5.298;2024-02-23T02:13:32;98965.90;;;15.79;66.31
84593;BME280;74832;51.656;5.298;2024-02-23T02:14:03;98962.31;;;15.74;66.53
84593;BME280;74832;51.656;5.298;2024-02-23T02:14:33;98956.32;;;15.82;66.28
84593;BME280;74832;51.656;5.298;2024-02-23T02:15:05;98965.29;;;15.85;66.13
84593;BME280;74832;51.656;5.298;2024-02-23T02:15:35;98963.10;;;15.87;66.13
84593;BME280;74832;51.656;5.298;2024-02-23T02:16:06;98954.85;;;15.89;66.00
84593;BME280;74832;51.656;5.298;2024-02-23T02:16:36;98962.00;;;15.86;66.19
84593;BME280;74832;51.656;5.298;2024-02-23T02:17:07;98962.40;;;15.88;66.01
84593;BME280;74832;51.656;5.298;2024-02-23T02:17:37;98961.92;;;15.79;66.28
84593;BME280;74832;51.656;5.298;2024-02-23T02:18:08;98966.47;;;15.86;66.05
84593;BME280;74832;51.656;5.298;2024-02-23T02:18:38;98962.15;;;15.80;66.26
84593;BME280;74832;51.656;5.298;2024-02-23T02:19:08;98968.24;;;15.81;66.28
84593;BME280;74832;51.656;5.298;2024-02-23T02:19:39;98966.71;;;15.78;66.40
84593;BME280;74832;51.656;5.298;2024-02-23T02:20:18;98962.99;;;15.75;66.40
84593;BME280;74832;51.656;5.298;2024-02-23T02:20:51;98969.44;;;15.71;66.55
84593;BME280;74832;51.656;5.298;2024-02-23T02:21:22;98966.33;;;15.74;66.52
84593;BME280;74832;51.656;5.298;2024-02-23T02:21:52;98969.52;;;15.81;66.29
84593;BME280;74832;51.656;5.298;2024-02-23T02:22:23;98967.85;;;15.85;66.21
84593;BME280;74832;51.656;5.298;2024-02-23T02:22:53;98960.27;;;15.79;66.32
84593;BME280;74832;51.656;5.298;2024-02-23T02:23:24;98970.16;;;15.80;66.32
84593;BME280;74832;51.656;5.298;2024-02-23T02:23:55;98968.63;;;15.77;66.37
84593;BME280;74832;51.656;5.298;2024-02-23T02:24:25;98963.94;;;15.77;66.38
84593;BME280;74832;51.656;5.298;2024-02-23T02:24:55;98970.40;;;15.78;66.28
84593;BME280;74832;51.656;5.298;2024-02-23T02:25:26;98966.06;;;15.79;66.31
84593;BME280;74832;51.656;5.298;2024-02-23T02:25:57;98965.45;;;15.84;66.18
84593;BME280;74832;51.656;5.298;2024-02-23T02:26:27;98967.62;;;15.80;66.24
84593;BME280;74832;51.656;5.298;2024-02-23T02:26:58;98968.10;;;15.84;66.10
84593;BME280;74832;51.656;5.298;2024-02-23T02:27:28;98969.74;;;15.78;66.20
84593;BME280;74832;51.656;5.298;2024-02-23T02:27:59;98976.66;;;15.81;66.29
84593;BME280;74832;51.656;5.298;2024-02-23T02:28:29;98966.87;;;15.79;66.34
84593;BME280;74832;51.656;5.298;2024-02-23T02:29:00;98960.93;;;15.82;66.19
84593;BME280;74832;51.656;5.298;2024-02-23T02:29:30;98966.25;;;15.83;66.23
84593;BME280;74832;51.656;5.298;2024-02-23T02:30:00;98966.49;;;15.79;66.22
84593;BME280;74832;51.656;5.298;2024-02-23T02:30:31;98969.84;;;15.83;66.14
84593;BME280;74832;51.656;5.298;2024-02-23T02:31:01;98962.66;;;15.78;66.25
84593;BME280;74832;51.656;5.298;2024-02-23T02:31:31;98970.06;;;15.77;66.38
84593;BME280;74832;51.656;5.298;2024-02-23T02:32:02;98955.29;;;15.78;66.26
84593;BME280;74832;51.656;5.298;2024-02-23T02:32:32;98966.54;;;15.71;66.49
84593;BME280;74832;51.656;5.298;2024-02-23T02:33:03;98967.64;;;15.73;66.44
84593;BME280;74832;51.656;5.298;2024-02-23T02:33:33;98974.09;;;15.79;66.26
84593;BME280;74832;51.656;5.298;2024-02-23T02:34:04;98971.57;;;15.78;66.28
84593;BME280;74832;51.656;5.298;2024-02-23T02:34:34;98968.01;;;15.74;66.49
84593;BME280;74832;51.656;5.298;2024-02-23T02:35:06;98971.84;;;15.71;66.57
84593;BME280;74832;51.656;5.298;2024-02-23T02:35:36;98971.80;;;15.70;66.58
84593;BME280;74832;51.656;5.298;2024-02-23T02:36:06;98976.54;;;15.76;66.42
84593;BME280;74832;51.656;5.298;2024-02-23T02:36:37;98975.49;;;15.79;66.29
84593;BME280;74832;51.656;5.298;2024-02-23T02:37:07;98975.56;;;15.79;66.20
84593;BME280;74832;51.656;5.298;2024-02-23T02:37:38;98972.07;;;15.76;66.31
84593;BME280;74832;51.656;5.298;2024-02-23T02:38:08;98976.84;;;15.74;66.45
84593;BME280;74832;51.656;5.298;2024-02-23T02:38:40;98972.41;;;15.73;66.54
84593;BME280;74832;51.656;5.298;2024-02-23T02:39:10;98982.41;;;15.78;66.26
84593;BME280;74832;51.656;5.298;2024-02-23T02:39:41;98983.12;;;15.75;66.38
84593;BME280;74832;51.656;5.298;2024-02-23T02:40:11;98980.16;;;15.75;66.38
84593;BME280;74832;51.656;5.298;2024-02-23T02:40:41;98981.73;;;15.73;66.38
84593;BME280;74832;51.656;5.298;2024-02-23T02:41:12;98985.67;;;15.72;66.54
84593;BME280;74832;51.656;5.298;2024-02-23T02:41:42;98982.11;;;15.68;66.58